Terminal Aerodrome Forecast
Issued by NWS Huntsville, AL

Home | Current Version | Previous Version | Text Only | Print | Product List | Glossary On
Versions: 1 2 3 4 5 6 7 8 9 10 11 12
000
FTUS44 KHUN 260520
TAFMSL
TAF
KMSL 260520Z 2606/2706 18004KT P6SM BKN100 BKN250
     FM261500 20007KT P6SM SCT250
     FM270100 15004KT P6SM SKC=

USA.gov is the U.S. government's official web portal to all federal, state and local government web resources and services.